sensor_id;sensor_type;location;lat;lon;timestamp;P1;durP1;ratioP1;P2;durP2;ratioP2
6785;SDS011;3430;51.192;6.048;2023-09-12T00:02:01;6.97;;;4.13;;
6785;SDS011;3430;51.192;6.048;2023-09-12T00:04:26;4.30;;;3.73;;
6785;SDS011;3430;51.192;6.048;2023-09-12T00:06:53;5.50;;;4.17;;
6785;SDS011;3430;51.192;6.048;2023-09-12T00:09:18;6.87;;;4.07;;
6785;SDS011;3430;51.192;6.048;2023-09-12T00:11:43;4.43;;;3.97;;
6785;SDS011;3430;51.192;6.048;2023-09-12T00:14:09;7.03;;;4.47;;
6785;SDS011;3430;51.192;6.048;2023-09-12T00:16:34;5.37;;;4.17;;
6785;SDS011;3430;51.192;6.048;2023-09-12T00:19:00;4.53;;;3.60;;
6785;SDS011;3430;51.192;6.048;2023-09-12T00:21:25;3.77;;;3.40;;
6785;SDS011;3430;51.192;6.048;2023-09-12T00:23:50;5.67;;;3.83;;
6785;SDS011;3430;51.192;6.048;2023-09-12T00:26:16;4.17;;;3.77;;
6785;SDS011;3430;51.192;6.048;2023-09-12T00:28:41;4.60;;;3.70;;
6785;SDS011;3430;51.192;6.048;2023-09-12T00:31:06;7.63;;;4.10;;
6785;SDS011;3430;51.192;6.048;2023-09-12T00:33:32;5.90;;;3.83;;
6785;SDS011;3430;51.192;6.048;2023-09-12T00:35:57;6.43;;;3.60;;
6785;SDS011;3430;51.192;6.048;2023-09-12T00:38:23;6.30;;;4.43;;
6785;SDS011;3430;51.192;6.048;2023-09-12T00:40:48;6.07;;;3.90;;
6785;SDS011;3430;51.192;6.048;2023-09-12T00:43:15;7.40;;;4.10;;
6785;SDS011;3430;51.192;6.048;2023-09-12T00:45:42;5.90;;;4.00;;
6785;SDS011;3430;51.192;6.048;2023-09-12T00:48:08;6.37;;;4.43;;
6785;SDS011;3430;51.192;6.048;2023-09-12T00:50:42;5.30;;;4.00;;
6785;SDS011;3430;51.192;6.048;2023-09-12T00:53:08;4.47;;;3.80;;
6785;SDS011;3430;51.192;6.048;2023-09-12T00:55:34;5.93;;;4.20;;
6785;SDS011;3430;51.192;6.048;2023-09-12T00:58:04;5.63;;;3.73;;
6785;SDS011;3430;51.192;6.048;2023-09-12T01:00:32;6.13;;;3.63;;
6785;SDS011;3430;51.192;6.048;2023-09-12T01:02:57;5.10;;;4.10;;
6785;SDS011;3430;51.192;6.048;2023-09-12T01:05:23;6.47;;;3.90;;
6785;SDS011;3430;51.192;6.048;2023-09-12T01:07:48;6.50;;;3.67;;
6785;SDS011;3430;51.192;6.048;2023-09-12T01:10:13;4.40;;;3.50;;
6785;SDS011;3430;51.192;6.048;2023-09-12T01:12:39;4.60;;;3.73;;
6785;SDS011;3430;51.192;6.048;2023-09-12T01:15:04;6.43;;;3.93;;
6785;SDS011;3430;51.192;6.048;2023-09-12T01:17:33;6.00;;;4.13;;
6785;SDS011;3430;51.192;6.048;2023-09-12T01:19:58;4.37;;;3.63;;
6785;SDS011;3430;51.192;6.048;2023-09-12T01:25:13;5.13;;;4.07;;
6785;SDS011;3430;51.192;6.048;2023-09-12T01:27:41;6.73;;;4.10;;
6785;SDS011;3430;51.192;6.048;2023-09-12T01:30:08;5.97;;;3.93;;
6785;SDS011;3430;51.192;6.048;2023-09-12T01:32:34;5.43;;;3.70;;
6785;SDS011;3430;51.192;6.048;2023-09-12T01:35:00;6.03;;;3.83;;
6785;SDS011;3430;51.192;6.048;2023-09-12T01:37:25;4.93;;;3.67;;
6785;SDS011;3430;51.192;6.048;2023-09-12T01:39:51;4.97;;;4.00;;
6785;SDS011;3430;51.192;6.048;2023-09-12T01:42:17;4.80;;;4.03;;
6785;SDS011;3430;51.192;6.048;2023-09-12T01:44:44;4.57;;;3.93;;
6785;SDS011;3430;51.192;6.048;2023-09-12T01:47:10;6.33;;;3.87;;
6785;SDS011;3430;51.192;6.048;2023-09-12T01:49:35;5.27;;;3.73;;
6785;SDS011;3430;51.192;6.048;2023-09-12T01:52:02;4.93;;;3.53;;
6785;SDS011;3430;51.192;6.048;2023-09-12T01:54:27;4.90;;;3.77;;
6785;SDS011;3430;51.192;6.048;2023-09-12T01:56:54;9.07;;;3.47;;
6785;SDS011;3430;51.192;6.048;2023-09-12T01:59:22;4.97;;;4.43;;
6785;SDS011;3430;51.192;6.048;2023-09-12T02:01:47;5.77;;;3.23;;
6785;SDS011;3430;51.192;6.048;2023-09-12T02:04:13;4.10;;;3.70;;
6785;SDS011;3430;51.192;6.048;2023-09-12T02:06:38;4.33;;;3.93;;
6785;SDS011;3430;51.192;6.048;2023-09-12T02:09:03;4.47;;;3.63;;
6785;SDS011;3430;51.192;6.048;2023-09-12T02:11:28;7.10;;;3.80;;
6785;SDS011;3430;51.192;6.048;2023-09-12T02:13:54;6.80;;;3.93;;
6785;SDS011;3430;51.192;6.048;2023-09-12T02:16:19;5.03;;;4.07;;
6785;SDS011;3430;51.192;6.048;2023-09-12T02:18:44;4.10;;;3.70;;
6785;SDS011;3430;51.192;6.048;2023-09-12T02:21:09;5.67;;;4.00;;
6785;SDS011;3430;51.192;6.048;2023-09-12T02:23:35;5.17;;;3.80;;
6785;SDS011;3430;51.192;6.048;2023-09-12T02:26:00;4.10;;;3.57;;
6785;SDS011;3430;51.192;6.048;2023-09-12T02:28:25;6.37;;;4.33;;
6785;SDS011;3430;51.192;6.048;2023-09-12T02:30:52;4.30;;;3.43;;
6785;SDS011;3430;51.192;6.048;2023-09-12T02:33:24;4.97;;;4.03;;
6785;SDS011;3430;51.192;6.048;2023-09-12T02:35:50;4.73;;;4.03;;
6785;SDS011;3430;51.192;6.048;2023-09-12T02:38:16;4.40;;;3.60;;
6785;SDS011;3430;51.192;6.048;2023-09-12T02:40:41;5.67;;;4.27;;
6785;SDS011;3430;51.192;6.048;2023-09-12T02:43:07;4.27;;;3.83;;
6785;SDS011;3430;51.192;6.048;2023-09-12T02:45:32;5.00;;;3.60;;
6785;SDS011;3430;51.192;6.048;2023-09-12T02:47:59;5.40;;;3.90;;
6785;SDS011;3430;51.192;6.048;2023-09-12T02:50:29;5.23;;;3.83;;
6785;SDS011;3430;51.192;6.048;2023-09-12T02:52:54;4.17;;;3.77;;
6785;SDS011;3430;51.192;6.048;2023-09-12T02:55:20;5.23;;;4.17;;
6785;SDS011;3430;51.192;6.048;2023-09-12T02:57:45;6.50;;;3.90;;
6785;SDS011;3430;51.192;6.048;2023-09-12T03:02:57;4.97;;;3.93;;
6785;SDS011;3430;51.192;6.048;2023-09-12T03:05:22;6.63;;;3.83;;
6785;SDS011;3430;51.192;6.048;2023-09-12T03:07:48;5.47;;;4.10;;
6785;SDS011;3430;51.192;6.048;2023-09-12T03:10:14;3.47;;;3.17;;
6785;SDS011;3430;51.192;6.048;2023-09-12T03:12:40;3.90;;;3.50;;
6785;SDS011;3430;51.192;6.048;2023-09-12T03:15:06;4.57;;;4.00;;
6785;SDS011;3430;51.192;6.048;2023-09-12T03:17:31;6.10;;;4.27;;
6785;SDS011;3430;51.192;6.048;2023-09-12T03:19:57;5.33;;;3.80;;
6785;SDS011;3430;51.192;6.048;2023-09-12T03:22:23;4.17;;;3.60;;
6785;SDS011;3430;51.192;6.048;2023-09-12T03:24:48;5.20;;;3.63;;
6785;SDS011;3430;51.192;6.048;2023-09-12T03:27:14;7.63;;;3.83;;
6785;SDS011;3430;51.192;6.048;2023-09-12T03:29:40;5.37;;;4.50;;
6785;SDS011;3430;51.192;6.048;2023-09-12T03:32:08;4.63;;;3.73;;
6785;SDS011;3430;51.192;6.048;2023-09-12T03:34:33;4.90;;;3.73;;
6785;SDS011;3430;51.192;6.048;2023-09-12T03:37:00;4.07;;;3.50;;
6785;SDS011;3430;51.192;6.048;2023-09-12T03:39:27;3.80;;;3.40;;
6785;SDS011;3430;51.192;6.048;2023-09-12T03:41:52;5.17;;;3.90;;
6785;SDS011;3430;51.192;6.048;2023-09-12T03:44:24;4.37;;;3.43;;
6785;SDS011;3430;51.192;6.048;2023-09-12T03:49:41;5.20;;;4.00;;
6785;SDS011;3430;51.192;6.048;2023-09-12T03:52:07;5.33;;;4.13;;
6785;SDS011;3430;51.192;6.048;2023-09-12T03:54:33;3.97;;;3.43;;
6785;SDS011;3430;51.192;6.048;2023-09-12T03:56:58;4.67;;;3.57;;
6785;SDS011;3430;51.192;6.048;2023-09-12T03:59:23;5.30;;;3.90;;
6785;SDS011;3430;51.192;6.048;2023-09-12T04:01:49;4.17;;;3.30;;
6785;SDS011;3430;51.192;6.048;2023-09-12T04:04:14;5.67;;;4.13;;
6785;SDS011;3430;51.192;6.048;2023-09-12T04:06:42;7.60;;;3.33;;
6785;SDS011;3430;51.192;6.048;2023-09-12T04:09:20;4.57;;;4.03;;
6785;SDS011;3430;51.192;6.048;2023-09-12T04:11:46;5.07;;;3.87;;
6785;SDS011;3430;51.192;6.048;2023-09-12T04:14:14;4.50;;;3.87;;
6785;SDS011;3430;51.192;6.048;2023-09-12T04:16:40;5.03;;;3.93;;
6785;SDS011;3430;51.192;6.048;2023-09-12T04:19:05;4.87;;;3.57;;
6785;SDS011;3430;51.192;6.048;2023-09-12T04:21:30;7.97;;;4.03;;
6785;SDS011;3430;51.192;6.048;2023-09-12T04:23:55;4.60;;;3.83;;
6785;SDS011;3430;51.192;6.048;2023-09-12T04:26:21;5.80;;;4.00;;
6785;SDS011;3430;51.192;6.048;2023-09-12T04:28:47;7.07;;;3.93;;
6785;SDS011;3430;51.192;6.048;2023-09-12T04:31:12;5.23;;;4.37;;
6785;SDS011;3430;51.192;6.048;2023-09-12T04:33:38;4.00;;;3.43;;
6785;SDS011;3430;51.192;6.048;2023-09-12T04:36:03;4.50;;;4.10;;
6785;SDS011;3430;51.192;6.048;2023-09-12T04:38:29;4.00;;;3.60;;
6785;SDS011;3430;51.192;6.048;2023-09-12T04:40:55;5.13;;;3.47;;
6785;SDS011;3430;51.192;6.048;2023-09-12T04:43:21;4.33;;;3.93;;
6785;SDS011;3430;51.192;6.048;2023-09-12T04:45:46;4.30;;;3.40;;
6785;SDS011;3430;51.192;6.048;2023-09-12T04:48:13;6.60;;;4.03;;
6785;SDS011;3430;51.192;6.048;2023-09-12T04:50:41;5.50;;;4.13;;
6785;SDS011;3430;51.192;6.048;2023-09-12T04:53:11;4.53;;;3.93;;
6785;SDS011;3430;51.192;6.048;2023-09-12T04:55:38;5.97;;;4.30;;
6785;SDS011;3430;51.192;6.048;2023-09-12T04:58:04;5.60;;;4.03;;
6785;SDS011;3430;51.192;6.048;2023-09-12T05:00:30;5.17;;;4.43;;
6785;SDS011;3430;51.192;6.048;2023-09-12T05:02:55;5.07;;;4.23;;
6785;SDS011;3430;51.192;6.048;2023-09-12T05:05:24;5.53;;;4.17;;
6785;SDS011;3430;51.192;6.048;2023-09-12T05:07:50;6.50;;;4.00;;
6785;SDS011;3430;51.192;6.048;2023-09-12T05:10:16;5.87;;;4.57;;
6785;SDS011;3430;51.192;6.048;2023-09-12T05:12:41;4.53;;;3.80;;
6785;SDS011;3430;51.192;6.048;2023-09-12T05:15:07;6.00;;;4.17;;
6785;SDS011;3430;51.192;6.048;2023-09-12T05:17:32;5.27;;;4.40;;
6785;SDS011;3430;51.192;6.048;2023-09-12T05:19:58;4.23;;;3.50;;
6785;SDS011;3430;51.192;6.048;2023-09-12T05:22:23;4.80;;;3.87;;
6785;SDS011;3430;51.192;6.048;2023-09-12T05:24:49;6.30;;;4.03;;
6785;SDS011;3430;51.192;6.048;2023-09-12T05:27:15;6.70;;;4.03;;
6785;SDS011;3430;51.192;6.048;2023-09-12T05:29:41;4.27;;;3.87;;
6785;SDS011;3430;51.192;6.048;2023-09-12T05:32:06;5.73;;;4.20;;
6785;SDS011;3430;51.192;6.048;2023-09-12T05:34:32;7.33;;;5.00;;
6785;SDS011;3430;51.192;6.048;2023-09-12T05:36:57;5.10;;;4.13;;
6785;SDS011;3430;51.192;6.048;2023-09-12T05:39:22;6.33;;;4.67;;
6785;SDS011;3430;51.192;6.048;2023-09-12T05:41:48;7.60;;;5.03;;
6785;SDS011;3430;51.192;6.048;2023-09-12T05:44:15;6.23;;;3.97;;
6785;SDS011;3430;51.192;6.048;2023-09-12T05:46:47;6.03;;;4.30;;
6785;SDS011;3430;51.192;6.048;2023-09-12T05:49:13;6.60;;;4.60;;
6785;SDS011;3430;51.192;6.048;2023-09-12T05:51:39;6.20;;;5.00;;
6785;SDS011;3430;51.192;6.048;2023-09-12T05:54:04;12.50;;;6.17;;
6785;SDS011;3430;51.192;6.048;2023-09-12T05:56:30;9.23;;;5.17;;
6785;SDS011;3430;51.192;6.048;2023-09-12T05:58:55;6.03;;;4.30;;
6785;SDS011;3430;51.192;6.048;2023-09-12T06:01:21;6.23;;;5.07;;
6785;SDS011;3430;51.192;6.048;2023-09-12T06:03:46;5.70;;;5.03;;
6785;SDS011;3430;51.192;6.048;2023-09-12T06:06:12;7.47;;;4.87;;
6785;SDS011;3430;51.192;6.048;2023-09-12T06:08:37;9.10;;;4.60;;
6785;SDS011;3430;51.192;6.048;2023-09-12T06:11:03;5.93;;;4.77;;
6785;SDS011;3430;51.192;6.048;2023-09-12T06:13:28;8.87;;;5.10;;
6785;SDS011;3430;51.192;6.048;2023-09-12T06:15:54;7.43;;;5.50;;
6785;SDS011;3430;51.192;6.048;2023-09-12T06:18:20;8.13;;;4.43;;
6785;SDS011;3430;51.192;6.048;2023-09-12T06:20:46;6.73;;;5.47;;
6785;SDS011;3430;51.192;6.048;2023-09-12T06:23:14;6.67;;;5.23;;
6785;SDS011;3430;51.192;6.048;2023-09-12T06:25:46;7.10;;;5.07;;
6785;SDS011;3430;51.192;6.048;2023-09-12T06:28:11;9.00;;;5.17;;
6785;SDS011;3430;51.192;6.048;2023-09-12T06:30:36;8.60;;;5.57;;
6785;SDS011;3430;51.192;6.048;2023-09-12T06:33:02;6.43;;;4.83;;
6785;SDS011;3430;51.192;6.048;2023-09-12T06:35:49;8.77;;;5.70;;
6785;SDS011;3430;51.192;6.048;2023-09-12T06:38:15;9.30;;;5.53;;
6785;SDS011;3430;51.192;6.048;2023-09-12T06:40:40;9.13;;;4.87;;
6785;SDS011;3430;51.192;6.048;2023-09-12T06:43:07;8.10;;;5.97;;
6785;SDS011;3430;51.192;6.048;2023-09-12T06:45:32;7.00;;;5.67;;
6785;SDS011;3430;51.192;6.048;2023-09-12T06:47:58;8.90;;;6.07;;
6785;SDS011;3430;51.192;6.048;2023-09-12T06:50:23;8.50;;;5.70;;
6785;SDS011;3430;51.192;6.048;2023-09-12T06:52:49;6.47;;;4.90;;
6785;SDS011;3430;51.192;6.048;2023-09-12T06:55:14;6.87;;;4.97;;
6785;SDS011;3430;51.192;6.048;2023-09-12T06:57:40;9.37;;;5.77;;
6785;SDS011;3430;51.192;6.048;2023-09-12T07:00:10;6.90;;;5.37;;
6785;SDS011;3430;51.192;6.048;2023-09-12T07:02:36;5.90;;;4.57;;
6785;SDS011;3430;51.192;6.048;2023-09-12T07:05:01;5.97;;;4.67;;
6785;SDS011;3430;51.192;6.048;2023-09-12T07:07:29;8.07;;;4.83;;
6785;SDS011;3430;51.192;6.048;2023-09-12T07:09:57;6.83;;;4.73;;
6785;SDS011;3430;51.192;6.048;2023-09-12T07:12:22;8.17;;;5.57;;
6785;SDS011;3430;51.192;6.048;2023-09-12T07:14:48;8.13;;;5.50;;
6785;SDS011;3430;51.192;6.048;2023-09-12T07:17:16;6.70;;;5.23;;
6785;SDS011;3430;51.192;6.048;2023-09-12T07:19:42;7.03;;;5.07;;
6785;SDS011;3430;51.192;6.048;2023-09-12T07:22:08;7.10;;;5.30;;
6785;SDS011;3430;51.192;6.048;2023-09-12T07:24:33;7.50;;;5.53;;
6785;SDS011;3430;51.192;6.048;2023-09-12T07:26:58;11.57;;;5.27;;
6785;SDS011;3430;51.192;6.048;2023-09-12T07:29:24;8.00;;;5.50;;
6785;SDS011;3430;51.192;6.048;2023-09-12T07:31:51;8.00;;;5.53;;
6785;SDS011;3430;51.192;6.048;2023-09-12T07:34:17;8.20;;;4.90;;
6785;SDS011;3430;51.192;6.048;2023-09-12T07:36:42;8.20;;;5.00;;
6785;SDS011;3430;51.192;6.048;2023-09-12T07:39:08;7.10;;;4.90;;
6785;SDS011;3430;51.192;6.048;2023-09-12T07:41:33;10.07;;;5.47;;
6785;SDS011;3430;51.192;6.048;2023-09-12T07:43:58;10.13;;;5.30;;
6785;SDS011;3430;51.192;6.048;2023-09-12T07:46:26;8.40;;;5.63;;
6785;SDS011;3430;51.192;6.048;2023-09-12T07:48:51;8.40;;;5.33;;
6785;SDS011;3430;51.192;6.048;2023-09-12T07:51:18;10.20;;;5.77;;
6785;SDS011;3430;51.192;6.048;2023-09-12T07:53:43;9.87;;;5.40;;
6785;SDS011;3430;51.192;6.048;2023-09-12T07:56:09;6.83;;;5.20;;
6785;SDS011;3430;51.192;6.048;2023-09-12T07:58:37;7.33;;;5.07;;
6785;SDS011;3430;51.192;6.048;2023-09-12T08:01:06;10.87;;;5.03;;
6785;SDS011;3430;51.192;6.048;2023-09-12T08:03:32;5.60;;;4.87;;
6785;SDS011;3430;51.192;6.048;2023-09-12T08:05:58;9.70;;;5.30;;
6785;SDS011;3430;51.192;6.048;2023-09-12T08:08:24;9.90;;;5.80;;
6785;SDS011;3430;51.192;6.048;2023-09-12T08:10:49;6.80;;;5.07;;
6785;SDS011;3430;51.192;6.048;2023-09-12T08:13:14;7.20;;;5.53;;
6785;SDS011;3430;51.192;6.048;2023-09-12T08:15:40;8.57;;;5.47;;
6785;SDS011;3430;51.192;6.048;2023-09-12T08:18:05;10.80;;;5.83;;
6785;SDS011;3430;51.192;6.048;2023-09-12T08:20:31;7.90;;;5.43;;
6785;SDS011;3430;51.192;6.048;2023-09-12T08:22:56;9.03;;;5.40;;
6785;SDS011;3430;51.192;6.048;2023-09-12T08:25:22;8.43;;;5.43;;
6785;SDS011;3430;51.192;6.048;2023-09-12T08:27:48;8.37;;;4.90;;
6785;SDS011;3430;51.192;6.048;2023-09-12T08:30:15;8.07;;;5.50;;
6785;SDS011;3430;51.192;6.048;2023-09-12T08:32:41;5.60;;;4.03;;
6785;SDS011;3430;51.192;6.048;2023-09-12T08:35:09;7.37;;;5.30;;
6785;SDS011;3430;51.192;6.048;2023-09-12T08:37:36;7.27;;;4.93;;
6785;SDS011;3430;51.192;6.048;2023-09-12T08:40:04;7.17;;;5.20;;
6785;SDS011;3430;51.192;6.048;2023-09-12T08:42:32;7.77;;;4.97;;
6785;SDS011;3430;51.192;6.048;2023-09-12T08:45:00;8.73;;;5.03;;
6785;SDS011;3430;51.192;6.048;2023-09-12T08:47:32;6.70;;;5.17;;
6785;SDS011;3430;51.192;6.048;2023-09-12T08:49:57;8.13;;;5.17;;
6785;SDS011;3430;51.192;6.048;2023-09-12T08:52:24;7.37;;;5.30;;
6785;SDS011;3430;51.192;6.048;2023-09-12T08:54:49;8.00;;;4.77;;
6785;SDS011;3430;51.192;6.048;2023-09-12T08:57:15;8.73;;;4.83;;
6785;SDS011;3430;51.192;6.048;2023-09-12T08:59:41;6.13;;;4.63;;
6785;SDS011;3430;51.192;6.048;2023-09-12T09:02:09;7.40;;;4.93;;
6785;SDS011;3430;51.192;6.048;2023-09-12T09:04:35;8.90;;;6.27;;
6785;SDS011;3430;51.192;6.048;2023-09-12T09:07:00;7.83;;;5.70;;
6785;SDS011;3430;51.192;6.048;2023-09-12T09:09:26;6.10;;;5.37;;
6785;SDS011;3430;51.192;6.048;2023-09-12T09:11:53;6.33;;;5.13;;
6785;SDS011;3430;51.192;6.048;2023-09-12T09:14:19;8.17;;;5.70;;
6785;SDS011;3430;51.192;6.048;2023-09-12T09:16:44;7.97;;;5.43;;
6785;SDS011;3430;51.192;6.048;2023-09-12T09:19:10;8.37;;;5.23;;
6785;SDS011;3430;51.192;6.048;2023-09-12T09:21:37;5.43;;;4.17;;
6785;SDS011;3430;51.192;6.048;2023-09-12T09:24:14;7.20;;;5.00;;
6785;SDS011;3430;51.192;6.048;2023-09-12T09:29:09;7.67;;;5.20;;
6785;SDS011;3430;51.192;6.048;2023-09-12T09:31:34;8.60;;;6.20;;
6785;SDS011;3430;51.192;6.048;2023-09-12T09:34:03;7.03;;;5.13;;
6785;SDS011;3430;51.192;6.048;2023-09-12T09:36:34;7.20;;;4.67;;
6785;SDS011;3430;51.192;6.048;2023-09-12T09:39:00;10.87;;;4.63;;
6785;SDS011;3430;51.192;6.048;2023-09-12T09:41:29;6.10;;;5.30;;
6785;SDS011;3430;51.192;6.048;2023-09-12T09:43:55;8.87;;;4.90;;
6785;SDS011;3430;51.192;6.048;2023-09-12T09:46:20;6.93;;;4.97;;
6785;SDS011;3430;51.192;6.048;2023-09-12T09:48:49;10.23;;;5.07;;
6785;SDS011;3430;51.192;6.048;2023-09-12T09:51:15;6.07;;;4.63;;
6785;SDS011;3430;51.192;6.048;2023-09-12T09:53:40;5.50;;;4.73;;
6785;SDS011;3430;51.192;6.048;2023-09-12T09:56:12;7.73;;;5.43;;
6785;SDS011;3430;51.192;6.048;2023-09-12T09:58:47;7.33;;;5.10;;
6785;SDS011;3430;51.192;6.048;2023-09-12T10:01:26;5.93;;;4.23;;
6785;SDS011;3430;51.192;6.048;2023-09-12T10:04:00;6.13;;;5.07;;
6785;SDS011;3430;51.192;6.048;2023-09-12T10:06:28;5.80;;;4.87;;
6785;SDS011;3430;51.192;6.048;2023-09-12T10:08:54;6.90;;;5.40;;
6785;SDS011;3430;51.192;6.048;2023-09-12T10:11:29;6.40;;;4.83;;
6785;SDS011;3430;51.192;6.048;2023-09-12T10:13:59;6.67;;;4.70;;
6785;SDS011;3430;51.192;6.048;2023-09-12T10:16:31;6.03;;;4.80;;
6785;SDS011;3430;51.192;6.048;2023-09-12T10:19:18;5.10;;;4.53;;
6785;SDS011;3430;51.192;6.048;2023-09-12T10:21:46;11.53;;;5.03;;
6785;SDS011;3430;51.192;6.048;2023-09-12T10:24:13;6.63;;;4.57;;
6785;SDS011;3430;51.192;6.048;2023-09-12T10:26:43;5.53;;;4.63;;
6785;SDS011;3430;51.192;6.048;2023-09-12T10:29:12;6.87;;;4.90;;
6785;SDS011;3430;51.192;6.048;2023-09-12T10:31:41;7.83;;;4.87;;
6785;SDS011;3430;51.192;6.048;2023-09-12T10:34:07;6.50;;;4.50;;
6785;SDS011;3430;51.192;6.048;2023-09-12T10:36:38;6.27;;;4.70;;
6785;SDS011;3430;51.192;6.048;2023-09-12T10:39:04;6.83;;;4.97;;
6785;SDS011;3430;51.192;6.048;2023-09-12T10:41:30;6.27;;;4.33;;
6785;SDS011;3430;51.192;6.048;2023-09-12T10:43:56;5.87;;;5.10;;
6785;SDS011;3430;51.192;6.048;2023-09-12T10:46:39;8.07;;;4.63;;
6785;SDS011;3430;51.192;6.048;2023-09-12T10:49:09;5.27;;;4.70;;
6785;SDS011;3430;51.192;6.048;2023-09-12T10:51:43;7.30;;;5.00;;
6785;SDS011;3430;51.192;6.048;2023-09-12T10:54:15;8.63;;;5.07;;
6785;SDS011;3430;51.192;6.048;2023-09-12T10:56:44;5.47;;;4.40;;
6785;SDS011;3430;51.192;6.048;2023-09-12T10:59:15;7.33;;;4.90;;
6785;SDS011;3430;51.192;6.048;2023-09-12T11:01:44;5.97;;;4.20;;
6785;SDS011;3430;51.192;6.048;2023-09-12T11:06:45;7.70;;;4.97;;
6785;SDS011;3430;51.192;6.048;2023-09-12T11:09:23;7.07;;;4.80;;
6785;SDS011;3430;51.192;6.048;2023-09-12T11:11:57;7.03;;;4.77;;
6785;SDS011;3430;51.192;6.048;2023-09-12T11:14:26;6.83;;;5.43;;
6785;SDS011;3430;51.192;6.048;2023-09-12T11:19:48;5.63;;;4.80;;
6785;SDS011;3430;51.192;6.048;2023-09-12T11:22:24;9.00;;;5.37;;
6785;SDS011;3430;51.192;6.048;2023-09-12T11:24:49;7.30;;;5.10;;
6785;SDS011;3430;51.192;6.048;2023-09-12T11:27:24;7.60;;;5.10;;
6785;SDS011;3430;51.192;6.048;2023-09-12T11:29:50;6.67;;;5.20;;
6785;SDS011;3430;51.192;6.048;2023-09-12T11:32:27;7.33;;;4.87;;
6785;SDS011;3430;51.192;6.048;2023-09-12T11:34:54;6.43;;;5.13;;
6785;SDS011;3430;51.192;6.048;2023-09-12T11:37:23;6.47;;;5.20;;
6785;SDS011;3430;51.192;6.048;2023-09-12T11:39:53;7.33;;;5.77;;
6785;SDS011;3430;51.192;6.048;2023-09-12T11:42:19;8.57;;;5.07;;
6785;SDS011;3430;51.192;6.048;2023-09-12T11:44:46;6.80;;;4.97;;
6785;SDS011;3430;51.192;6.048;2023-09-12T11:47:11;6.13;;;4.63;;
6785;SDS011;3430;51.192;6.048;2023-09-12T11:49:39;7.33;;;5.00;;
6785;SDS011;3430;51.192;6.048;2023-09-12T11:52:11;7.60;;;4.90;;
6785;SDS011;3430;51.192;6.048;2023-09-12T11:54:41;8.77;;;4.87;;
6785;SDS011;3430;51.192;6.048;2023-09-12T11:57:16;8.00;;;5.33;;
6785;SDS011;3430;51.192;6.048;2023-09-12T11:59:42;8.63;;;5.40;;
6785;SDS011;3430;51.192;6.048;2023-09-12T12:02:12;5.57;;;4.97;;
6785;SDS011;3430;51.192;6.048;2023-09-12T12:04:37;7.67;;;5.37;;
6785;SDS011;3430;51.192;6.048;2023-09-12T12:07:03;6.27;;;4.70;;
6785;SDS011;3430;51.192;6.048;2023-09-12T12:09:29;5.83;;;4.90;;
6785;SDS011;3430;51.192;6.048;2023-09-12T12:11:54;5.80;;;4.90;;
6785;SDS011;3430;51.192;6.048;2023-09-12T12:17:11;5.83;;;4.47;;
6785;SDS011;3430;51.192;6.048;2023-09-12T12:19:37;7.00;;;5.53;;
6785;SDS011;3430;51.192;6.048;2023-09-12T12:22:03;7.63;;;5.43;;
6785;SDS011;3430;51.192;6.048;2023-09-12T12:24:42;6.57;;;4.90;;
6785;SDS011;3430;51.192;6.048;2023-09-12T12:27:23;8.50;;;5.43;;
6785;SDS011;3430;51.192;6.048;2023-09-12T12:29:48;11.70;;;5.40;;
6785;SDS011;3430;51.192;6.048;2023-09-12T12:32:15;7.80;;;5.60;;
6785;SDS011;3430;51.192;6.048;2023-09-12T12:34:58;5.07;;;4.47;;
6785;SDS011;3430;51.192;6.048;2023-09-12T12:37:30;6.70;;;4.70;;
6785;SDS011;3430;51.192;6.048;2023-09-12T12:39:56;7.73;;;5.40;;
6785;SDS011;3430;51.192;6.048;2023-09-12T12:42:22;5.60;;;5.10;;
6785;SDS011;3430;51.192;6.048;2023-09-12T12:45:32;5.07;;;4.17;;
6785;SDS011;3430;51.192;6.048;2023-09-12T12:47:38;7.73;;;4.93;;
6785;SDS011;3430;51.192;6.048;2023-09-12T12:50:13;7.00;;;5.53;;
6785;SDS011;3430;51.192;6.048;2023-09-12T12:52:42;6.20;;;5.30;;
6785;SDS011;3430;51.192;6.048;2023-09-12T12:55:22;8.40;;;4.97;;
6785;SDS011;3430;51.192;6.048;2023-09-12T12:57:51;6.93;;;5.27;;
6785;SDS011;3430;51.192;6.048;2023-09-12T13:00:18;7.57;;;5.43;;
6785;SDS011;3430;51.192;6.048;2023-09-12T13:02:44;6.43;;;5.37;;
6785;SDS011;3430;51.192;6.048;2023-09-12T13:07:48;6.03;;;4.80;;
6785;SDS011;3430;51.192;6.048;2023-09-12T13:10:14;5.57;;;5.07;;
6785;SDS011;3430;51.192;6.048;2023-09-12T13:12:42;6.13;;;4.17;;
6785;SDS011;3430;51.192;6.048;2023-09-12T13:15:10;5.90;;;5.30;;
6785;SDS011;3430;51.192;6.048;2023-09-12T13:17:41;7.47;;;5.13;;
6785;SDS011;3430;51.192;6.048;2023-09-12T13:20:16;6.63;;;5.17;;
6785;SDS011;3430;51.192;6.048;2023-09-12T13:22:42;5.93;;;4.97;;
6785;SDS011;3430;51.192;6.048;2023-09-12T13:25:08;5.30;;;4.63;;
6785;SDS011;3430;51.192;6.048;2023-09-12T13:27:34;6.13;;;4.67;;
6785;SDS011;3430;51.192;6.048;2023-09-12T13:29:59;6.20;;;5.03;;
6785;SDS011;3430;51.192;6.048;2023-09-12T13:32:25;7.00;;;5.17;;
6785;SDS011;3430;51.192;6.048;2023-09-12T13:34:52;6.53;;;4.93;;
6785;SDS011;3430;51.192;6.048;2023-09-12T13:37:18;5.37;;;4.80;;
6785;SDS011;3430;51.192;6.048;2023-09-12T13:39:44;5.80;;;5.20;;
6785;SDS011;3430;51.192;6.048;2023-09-12T13:42:14;6.57;;;4.80;;
6785;SDS011;3430;51.192;6.048;2023-09-12T13:44:43;6.13;;;4.93;;
6785;SDS011;3430;51.192;6.048;2023-09-12T13:47:09;6.20;;;4.87;;
6785;SDS011;3430;51.192;6.048;2023-09-12T13:49:34;6.87;;;5.00;;
6785;SDS011;3430;51.192;6.048;2023-09-12T13:52:00;7.53;;;5.00;;
6785;SDS011;3430;51.192;6.048;2023-09-12T13:54:25;7.17;;;5.57;;
6785;SDS011;3430;51.192;6.048;2023-09-12T13:56:51;6.37;;;5.20;;
6785;SDS011;3430;51.192;6.048;2023-09-12T13:59:16;7.57;;;4.83;;
6785;SDS011;3430;51.192;6.048;2023-09-12T14:01:42;6.67;;;5.07;;
6785;SDS011;3430;51.192;6.048;2023-09-12T14:04:08;8.23;;;5.87;;
6785;SDS011;3430;51.192;6.048;2023-09-12T14:06:34;6.93;;;5.63;;
6785;SDS011;3430;51.192;6.048;2023-09-12T14:09:00;6.07;;;5.20;;
6785;SDS011;3430;51.192;6.048;2023-09-12T14:11:26;6.77;;;5.27;;
6785;SDS011;3430;51.192;6.048;2023-09-12T14:13:51;7.37;;;5.77;;
6785;SDS011;3430;51.192;6.048;2023-09-12T14:16:17;7.53;;;5.33;;
6785;SDS011;3430;51.192;6.048;2023-09-12T14:18:43;6.00;;;5.00;;
6785;SDS011;3430;51.192;6.048;2023-09-12T14:21:08;6.10;;;5.03;;
6785;SDS011;3430;51.192;6.048;2023-09-12T14:23:33;5.57;;;4.97;;
6785;SDS011;3430;51.192;6.048;2023-09-12T14:25:59;7.47;;;4.97;;
6785;SDS011;3430;51.192;6.048;2023-09-12T14:28:25;5.53;;;4.73;;
6785;SDS011;3430;51.192;6.048;2023-09-12T14:30:50;6.50;;;4.90;;
6785;SDS011;3430;51.192;6.048;2023-09-12T14:33:17;5.57;;;4.87;;
6785;SDS011;3430;51.192;6.048;2023-09-12T14:35:43;10.27;;;5.43;;
6785;SDS011;3430;51.192;6.048;2023-09-12T14:38:09;5.27;;;4.77;;
6785;SDS011;3430;51.192;6.048;2023-09-12T14:40:35;6.90;;;5.37;;
6785;SDS011;3430;51.192;6.048;2023-09-12T14:43:00;6.87;;;5.40;;
6785;SDS011;3430;51.192;6.048;2023-09-12T14:45:27;6.23;;;5.40;;
6785;SDS011;3430;51.192;6.048;2023-09-12T14:47:52;6.03;;;5.00;;
6785;SDS011;3430;51.192;6.048;2023-09-12T14:50:20;6.33;;;5.23;;
6785;SDS011;3430;51.192;6.048;2023-09-12T14:52:46;5.93;;;5.07;;
6785;SDS011;3430;51.192;6.048;2023-09-12T14:55:11;6.50;;;5.17;;
6785;SDS011;3430;51.192;6.048;2023-09-12T14:57:37;6.30;;;5.33;;
6785;SDS011;3430;51.192;6.048;2023-09-12T15:00:02;5.53;;;5.03;;
6785;SDS011;3430;51.192;6.048;2023-09-12T15:02:28;5.40;;;4.90;;
6785;SDS011;3430;51.192;6.048;2023-09-12T15:04:57;5.80;;;4.87;;
6785;SDS011;3430;51.192;6.048;2023-09-12T15:07:22;6.83;;;5.23;;
6785;SDS011;3430;51.192;6.048;2023-09-12T15:09:48;6.53;;;5.43;;
6785;SDS011;3430;51.192;6.048;2023-09-12T15:12:13;6.00;;;4.83;;
6785;SDS011;3430;51.192;6.048;2023-09-12T15:14:39;6.37;;;5.73;;
6785;SDS011;3430;51.192;6.048;2023-09-12T15:17:07;6.03;;;5.20;;
6785;SDS011;3430;51.192;6.048;2023-09-12T15:19:32;6.63;;;5.33;;
6785;SDS011;3430;51.192;6.048;2023-09-12T15:21:58;5.80;;;5.13;;
6785;SDS011;3430;51.192;6.048;2023-09-12T15:24:23;6.77;;;5.53;;
6785;SDS011;3430;51.192;6.048;2023-09-12T15:26:49;7.27;;;5.33;;
6785;SDS011;3430;51.192;6.048;2023-09-12T15:29:14;6.10;;;5.50;;
6785;SDS011;3430;51.192;6.048;2023-09-12T15:31:39;6.67;;;5.60;;
6785;SDS011;3430;51.192;6.048;2023-09-12T15:34:05;7.53;;;6.00;;
6785;SDS011;3430;51.192;6.048;2023-09-12T15:36:36;10.00;;;6.10;;